Terminal Aerodrome Forecast
Issued by NWS

Home | Current Version | Previous Version | Text Only | Print | Product List | Glossary On
Versions: 1 2 3 4 5 6 7 8 9 10 11 12 13 14
000
FTUS45 KTFX 051145
TAFLWT
TAF
KLWT 051145Z 0512/0612 36008KT 6SM HZ SCT015 BKN035
      TEMPO 0512/0515 5SM -RA BKN015
     FM051500 35008KT P6SM SCT020 BKN045
      TEMPO 0515/0518 5SM -RA BKN020
     FM051800 01008KT P6SM VCSH BKN060
     FM060000 32006KT P6SM BKN100
     FM060500 24005KT P6SM BKN150=

USA.gov is the U.S. government's official web portal to all federal, state and local government web resources and services.